Time;durP1;ratioP1;P1;durP2;ratioP2;P2;SDS_P1;SDS_P2;PMS_P1;PMS_P2;Temp;Humidity;BMP_temperature;BMP_pressure;BME280_temperature;BME280_humidity;BME280_pressure;Samples;Min_cycle;Max_cycle;Signal;HPM_P1;HPM_P2
2021/08/05 00:00:46;;;;;;;5.82;2.67;;;;;;;15.90;90.98;98587.22;5075190;28;20156;-86
2021/08/05 00:03:13;;;;;;;7.22;2.33;;;;;;;16.03;91.04;98591.66;5074242;28;20052;-86
2021/08/05 00:05:41;;;;;;;4.78;2.45;;;;;;;16.12;90.77;98609.44;5074575;28;20040;-86
2021/08/05 00:08:11;;;;;;;2.20;2.00;;;;;;;16.08;90.20;98600.88;5074829;28;20068;-86
2021/08/05 00:10:38;;;;;;;1.70;1.52;;;;;;;15.88;nan;98581.13;5074360;28;20064;-87
2021/08/05 00:13:06;;;;;;;11.75;2.58;;;;;;;15.84;91.34;98583.50;5074059;28;20484;-86
2021/08/05 00:15:34;;;;;;;3.47;2.08;;;;;;;15.87;91.22;98577.56;5075115;28;20071;-87
2021/08/05 00:18:01;;;;;;;4.97;1.98;;;;;;;15.89;90.96;98583.63;5074428;28;20094;-86
2021/08/05 00:20:28;;;;;;;5.30;2.22;;;;;;;15.92;90.76;98558.50;5074289;28;20055;-87
2021/08/05 00:22:55;;;;;;;3.03;2.15;;;;;;;15.97;91.11;98556.97;5073723;28;20060;-87
2021/08/05 00:25:22;;;;;;;3.28;2.45;;;;;;;16.05;90.38;98568.44;5071634;28;20052;-87
2021/08/05 00:27:51;;;;;;;3.60;2.60;;;;;;;15.89;91.44;98561.72;5074159;28;20048;-87
2021/08/05 00:30:18;;;;;;;4.43;2.30;;;;;;;15.88;91.58;98565.53;5074009;28;20045;-87
2021/08/05 00:32:47;;;;;;;9.38;2.28;;;;;;;15.98;90.84;98566.88;5067763;28;20045;-86
2021/08/05 00:35:16;;;;;;;2.20;1.80;;;;;;;16.01;90.41;98564.47;5070175;28;20496;-87
2021/08/05 00:37:43;;;;;;;2.90;1.98;;;;;;;15.83;91.18;98573.63;5073435;28;20074;-87
2021/08/05 00:40:11;;;;;;;2.92;1.95;;;;;;;15.73;91.93;98559.59;5074133;28;20571;-87
2021/08/05 00:42:38;;;;;;;6.10;2.42;;;;;;;15.74;92.12;98569.50;5074206;28;20049;-86
2021/08/05 00:45:07;;;;;;;2.80;2.00;;;;;;;15.61;92.47;98561.47;5073599;28;20049;-86
2021/08/05 00:47:34;;;;;;;2.30;2.10;;;;;;;15.74;92.75;98581.28;5074831;28;20078;-86
2021/08/05 00:50:02;;;;;;;3.28;1.88;;;;;;;15.66;92.12;98559.72;5074461;28;20049;-86
2021/08/05 00:52:29;;;;;;;5.38;2.35;;;;;;;15.66;92.40;98575.31;5072731;28;20585;-85
2021/08/05 00:54:56;;;;;;;4.97;2.05;;;;;;;15.72;92.53;98580.69;5069364;28;20048;-85
2021/08/05 00:57:24;;;;;;;2.88;2.30;;;;;;;15.66;92.78;98594.50;5074111;28;20056;-86
2021/08/05 00:59:54;;;;;;;2.92;2.20;;;;;;;15.65;92.88;98576.38;5073860;28;20060;-86
2021/08/05 01:02:24;;;;;;;3.80;2.40;;;;;;;15.62;93.02;98576.84;5072914;28;20135;-86
2021/08/05 01:04:54;;;;;;;5.53;2.50;;;;;;;15.66;92.76;98591.75;5073416;28;20056;-86
2021/08/05 01:07:27;;;;;;;6.20;2.35;;;;;;;15.63;93.46;98576.63;5074598;28;20048;-87
2021/08/05 01:10:06;;;;;;;4.43;2.40;;;;;;;15.81;92.67;98589.47;5073362;28;20048;-86
2021/08/05 01:12:52;;;;;;;3.95;2.47;;;;;;;15.84;91.43;98567.06;5068490;28;20450;-86
2021/08/05 01:15:28;;;;;;;2.83;2.30;;;;;;;15.73;91.78;98565.94;5070105;28;20151;-86
2021/08/05 01:18:00;;;;;;;2.85;2.35;;;;;;;15.76;91.94;98561.88;5073654;28;20068;-86
2021/08/05 01:20:30;;;;;;;4.63;2.22;;;;;;;15.73;91.71;98565.09;5069494;28;20527;-86
2021/08/05 01:23:13;;;;;;;6.93;2.90;;;;;;;15.65;92.04;98555.28;5071720;28;20516;-85
2021/08/05 01:25:48;;;;;;;3.47;2.58;;;;;;;15.62;92.38;98560.41;5072748;28;20458;-86
2021/08/05 01:28:19;;;;;;;3.80;3.00;;;;;;;15.55;93.23;98561.34;5072750;28;20052;-85
2021/08/05 01:30:49;;;;;;;5.20;2.55;;;;;;;15.44;93.62;98553.91;5074000;28;20048;-86
2021/08/05 01:33:19;;;;;;;;;;;;;;;15.52;93.31;98571.91;5074264;28;20052;-86
2021/08/05 01:35:49;;;;;;;5.30;2.10;;;;;;;15.49;93.60;98577.84;5073541;28;20283;-85
2021/08/05 01:38:16;;;;;;;;;;;;;;;15.44;94.15;98574.97;5057875;28;20124;-86
2021/08/05 01:40:47;;;;;;;8.15;2.63;;;;;;;15.34;94.47;98568.16;5073669;28;20457;-86
2021/08/05 01:43:17;;;;;;;2.83;2.17;;;;;;;15.45;93.94;98572.00;5073330;28;20045;-86
2021/08/05 01:45:45;;;;;;;;;;;;;;;15.42;94.02;98577.94;5068896;28;20044;-86
2021/08/05 01:48:19;;;;;;;5.25;2.15;;;;;;;15.24;94.33;98542.38;5070391;28;19920;-86
2021/08/05 01:50:51;;;;;;;3.03;2.08;;;;;;;15.33;94.34;98558.25;5073344;28;20052;-86
2021/08/05 01:53:18;;;;;;;6.10;2.80;;;;;;;15.42;93.01;98552.47;5073011;28;20067;-85
2021/08/05 01:55:47;;;;;;;4.43;2.20;;;;;;;15.42;93.54;98560.69;5069612;28;20056;-87
2021/08/05 01:58:14;;;;;;;6.57;2.75;;;;;;;15.48;92.97;98549.63;5073919;28;20480;-86
2021/08/05 02:00:43;;;;;;;4.68;2.75;;;;;;;15.46;93.50;98550.94;5065691;28;20045;-86
2021/08/05 02:03:11;;;;;;;2.88;1.92;;;;;;;15.29;93.84;98542.53;5070453;28;20048;-86
2021/08/05 02:05:48;;;;;;;7.80;2.20;;;;;;;15.23;93.98;98549.75;5073368;28;20131;-86
2021/08/05 02:08:22;;;;;;;4.43;2.05;;;;;;;15.21;94.32;98552.72;5073074;28;20052;-86
2021/08/05 02:10:56;;;;;;;5.80;2.30;;;;;;;15.30;94.15;98563.38;5073636;28;20041;-86
2021/08/05 02:13:27;;;;;;;8.77;2.40;;;;;;;15.23;94.02;98552.50;5072772;28;20055;-86
2021/08/05 02:15:59;;;;;;;3.70;2.22;;;;;;;15.21;93.72;98538.19;5072874;28;20059;-86
2021/08/05 02:18:29;;;;;;;4.20;2.05;;;;;;;15.16;94.22;98538.91;5070340;28;20825;-87
2021/08/05 02:20:57;;;;;;;4.95;2.17;;;;;;;15.19;93.67;98540.31;5073006;28;20053;-86
2021/08/05 02:23:26;;;;;;;3.13;2.25;;;;;;;15.27;92.93;98544.66;5071490;28;20131;-86
2021/08/05 02:25:54;;;;;;;3.95;2.42;;;;;;;15.12;93.58;98534.13;5073896;28;20459;-86
2021/08/05 02:28:23;;;;;;;3.63;2.33;;;;;;;15.18;92.95;98533.19;5073081;28;20040;-86
2021/08/05 02:30:51;;;;;;;5.45;2.50;;;;;;;14.95;93.34;98523.78;5072244;28;20139;-86
2021/08/05 02:33:22;;;;;;;3.75;2.10;;;;;;;14.95;93.71;98528.41;5072810;28;20063;-86
2021/08/05 02:35:51;;;;;;;3.65;2.42;;;;;;;14.88;93.42;98520.28;5072067;28;20045;-87
2021/08/05 02:38:18;;;;;;;3.33;2.30;;;;;;;14.87;92.93;98535.03;5072875;28;20045;-87
2021/08/05 02:40:47;;;;;;;4.10;2.20;;;;;;;14.88;92.61;98544.91;5072489;28;20051;-86
2021/08/05 02:43:15;;;;;;;3.80;2.40;;;;;;;15.01;91.78;98550.25;5072631;28;20048;-87
2021/08/05 02:45:44;;;;;;;7.22;3.55;;;;;;;14.74;91.40;98519.59;5068928;28;20055;-86
2021/08/05 02:48:12;;;;;;;2.78;1.92;;;;;;;14.49;91.84;98514.97;5071767;28;20132;-87
2021/08/05 02:50:44;;;;;;;5.32;2.28;;;;;;;14.62;91.59;98525.00;5064667;28;20072;-86
2021/08/05 02:53:12;;;;;;;3.00;2.00;;;;;;;14.43;92.71;98512.34;5067614;28;20049;-86
2021/08/05 02:55:43;;;;;;;3.42;2.13;;;;;;;14.39;92.82;98525.63;5072705;28;20040;-86
2021/08/05 02:58:11;;;;;;;4.07;2.13;;;;;;;14.24;92.25;98517.78;5072970;28;20415;-86
2021/08/05 03:00:38;;;;;;;3.90;1.88;;;;;;;14.30;91.88;98524.22;5072075;28;20131;-87
2021/08/05 03:03:06;;;;;;;4.13;2.08;;;;;;;14.35;91.67;98543.53;5068323;28;20106;-86
2021/08/05 03:05:33;;;;;;;4.43;1.80;;;;;;;14.21;91.97;98512.75;5067245;28;20052;-86
2021/08/05 03:08:02;;;;;;;6.57;2.38;;;;;;;14.27;91.91;98511.00;5071925;28;20060;-86
2021/08/05 03:10:29;;;;;;;4.60;2.00;;;;;;;14.28;91.34;98523.63;5072496;28;20045;-85
2021/08/05 03:12:56;;;;;;;4.65;2.00;;;;;;;14.14;91.29;98531.09;5071337;28;20044;-86
2021/08/05 03:15:23;;;;;;;3.47;1.83;;;;;;;13.91;91.84;98513.44;5072715;28;20127;-86
2021/08/05 03:17:52;;;;;;;3.78;2.08;;;;;;;13.89;92.97;98510.06;5072272;28;20041;-86
2021/08/05 03:20:28;;;;;;;4.50;2.15;;;;;;;13.98;92.90;98521.56;5070091;28;20048;-86
2021/08/05 03:22:57;;;;;;;2.30;1.80;;;;;;;13.89;92.74;98520.16;5070231;28;20044;-86
2021/08/05 03:25:25;;;;;;;4.88;2.05;;;;;;;13.73;93.55;98505.16;5064087;28;20056;-86
2021/08/05 03:27:52;;;;;;;4.55;2.30;;;;;;;13.70;93.40;98509.19;5070923;28;20131;-86
2021/08/05 03:30:22;;;;;;;2.75;1.85;;;;;;;13.56;93.79;98516.59;5071721;28;20052;-86
2021/08/05 03:32:49;;;;;;;;;;;;;;;13.57;93.35;98531.94;5072805;28;20048;-86
2021/08/05 03:35:16;;;;;;;3.38;1.58;;;;;;;13.42;93.15;98507.66;5071449;28;20389;-86
2021/08/05 03:37:43;;;;;;;2.50;1.90;;;;;;;13.50;93.02;98527.59;5071458;28;20095;-86
2021/08/05 03:40:10;;;;;;;4.28;2.42;;;;;;;13.58;91.92;98519.16;5071898;28;20055;-87
2021/08/05 03:42:38;;;;;;;3.47;2.30;;;;;;;13.40;91.74;98517.16;5072071;28;20045;-87
2021/08/05 03:45:06;;;;;;;3.75;2.40;;;;;;;13.23;93.05;98509.44;5071672;28;20147;-86
2021/08/05 03:47:33;;;;;;;5.63;2.20;;;;;;;13.27;92.57;98507.94;5071963;28;20135;-86
2021/08/05 03:50:01;;;;;;;7.60;2.13;;;;;;;13.24;92.72;98511.09;5072174;28;20508;-87
2021/08/05 03:52:28;;;;;;;5.38;2.25;;;;;;;13.28;92.58;98527.91;5072082;28;20485;-86
2021/08/05 03:54:54;;;;;;;5.78;2.42;;;;;;;13.19;92.73;98530.03;5071586;28;20047;-86
2021/08/05 03:57:21;;;;;;;3.33;2.47;;;;;;;13.22;93.62;98529.59;5071751;28;20523;-86
2021/08/05 03:59:50;;;;;;;5.00;2.25;;;;;;;13.08;93.48;98515.19;5064978;28;20480;-86
2021/08/05 04:02:17;;;;;;;4.65;2.30;;;;;;;13.24;93.67;98535.66;5071271;28;20056;-87
2021/08/05 04:04:44;;;;;;;3.38;2.20;;;;;;;13.08;93.85;98533.44;5071912;28;20157;-86
2021/08/05 04:07:11;;;;;;;4.50;2.05;;;;;;;13.14;94.25;98540.75;5071478;28;20048;-83
2021/08/05 04:09:38;;;;;;;4.20;2.72;;;;;;;13.13;94.32;98532.78;5071043;28;20460;-86
2021/08/05 04:12:06;;;;;;;5.20;2.50;;;;;;;13.22;93.73;98532.31;5071614;28;20407;-86
2021/08/05 04:14:33;;;;;;;3.42;2.10;;;;;;;13.04;94.21;98518.56;5070641;28;20040;-86
2021/08/05 04:17:01;;;;;;;2.95;2.30;;;;;;;13.16;93.88;98533.19;5069829;28;20052;-84
2021/08/05 04:19:28;;;;;;;4.60;2.28;;;;;;;13.14;93.69;98532.56;5072223;28;20484;-85
2021/08/05 04:21:55;;;;;;;5.00;2.58;;;;;;;13.13;93.65;98536.34;5072014;28;20052;-86
2021/08/05 04:24:22;;;;;;;4.72;2.67;;;;;;;13.15;94.78;98536.97;5070815;28;20056;-85
2021/08/05 04:26:49;;;;;;;3.33;2.33;;;;;;;13.22;94.62;98536.97;5070594;28;20102;-84
2021/08/05 04:29:16;;;;;;;3.45;2.30;;;;;;;13.36;93.71;98544.03;5071016;28;20052;-84
2021/08/05 04:31:43;;;;;;;3.85;2.50;;;;;;;13.25;93.77;98531.06;5070638;28;20059;-83
2021/08/05 04:34:11;;;;;;;4.22;2.63;;;;;;;13.12;93.85;98525.66;5068084;28;20055;-84
2021/08/05 04:36:38;;;;;;;4.10;2.60;;;;;;;13.08;95.26;98539.75;5070919;28;20399;-84
2021/08/05 04:39:05;;;;;;;8.88;2.70;;;;;;;13.07;94.72;98524.41;5072407;28;20385;-84
2021/08/05 04:41:32;;;;;;;4.15;2.47;;;;;;;13.26;94.24;98529.97;5074350;28;20124;-84
2021/08/05 04:43:59;;;;;;;3.30;2.35;;;;;;;13.23;93.81;98525.81;5074364;28;20056;-84
2021/08/05 04:46:26;;;;;;;4.47;2.67;;;;;;;13.56;93.42;98549.38;5073983;28;20048;-84
2021/08/05 04:48:53;;;;;;;3.38;2.55;;;;;;;13.66;92.66;98529.78;5074114;28;20036;-84
2021/08/05 04:51:22;;;;;;;10.77;4.10;;;;;;;13.75;93.16;98539.38;5074021;28;20076;-84
2021/08/05 04:53:49;;;;;;;4.95;2.55;;;;;;;13.85;93.14;98541.66;5074173;28;20051;-84
2021/08/05 04:56:16;;;;;;;4.55;2.60;;;;;;;13.85;92.98;98532.59;5074126;28;20051;-84
2021/08/05 04:58:44;;;;;;;8.20;2.50;;;;;;;13.87;93.72;98544.97;5074811;28;20051;-84
2021/08/05 05:01:11;;;;;;;4.45;2.58;;;;;;;13.91;93.89;98553.56;5074214;28;20048;-84
2021/08/05 05:03:38;;;;;;;4.15;2.72;;;;;;;13.96;93.21;98532.72;5073258;28;20075;-84
2021/08/05 05:06:05;;;;;;;9.15;3.35;;;;;;;13.91;93.86;98527.09;5074126;28;20127;-84
2021/08/05 05:08:33;;;;;;;4.70;2.83;;;;;;;14.13;94.18;98538.44;5068425;28;20488;-84
2021/08/05 05:11:00;;;;;;;5.85;3.17;;;;;;;14.13;93.70;98530.25;5073921;28;20060;-84
2021/08/05 05:13:27;;;;;;;5.47;2.97;;;;;;;14.10;94.24;98536.16;5067788;28;20054;-84
2021/08/05 05:15:54;;;;;;;4.40;2.80;;;;;;;14.27;93.91;98541.94;5073552;28;20476;-84
2021/08/05 05:18:25;;;;;;;6.03;2.80;;;;;;;14.25;92.89;98543.22;5073191;28;20052;-82
2021/08/05 05:20:53;;;;;;;4.28;2.83;;;;;;;14.50;91.96;98538.53;5073743;28;20059;-82
2021/08/05 05:23:20;;;;;;;3.92;2.60;;;;;;;14.36;92.46;98527.97;5072377;28;20044;-82
2021/08/05 05:25:49;;;;;;;4.60;3.28;;;;;;;14.41;92.85;98526.22;5073306;28;20052;-82
2021/08/05 05:28:16;;;;;;;5.55;3.25;;;;;;;14.45;93.49;98530.19;5073576;28;20127;-83
2021/08/05 05:30:44;;;;;;;4.32;2.70;;;;;;;14.48;91.52;98529.75;5073277;28;20518;-82
2021/08/05 05:33:11;;;;;;;3.97;2.90;;;;;;;14.61;91.54;98538.91;5073297;28;20064;-82
2021/08/05 05:35:38;;;;;;;4.05;2.10;;;;;;;14.64;92.27;98539.28;5072617;28;20040;-83
2021/08/05 05:38:06;;;;;;;6.47;2.55;;;;;;;14.58;91.87;98523.75;5072763;28;20434;-83
2021/08/05 05:40:32;;;;;;;4.18;2.90;;;;;;;14.78;91.70;98539.13;5066335;28;20064;-83
2021/08/05 05:43:01;;;;;;;3.67;2.63;;;;;;;14.79;91.84;98541.63;5072850;28;20484;-82
2021/08/05 05:45:31;;;;;;;3.55;2.55;;;;;;;14.79;91.35;98535.34;5069955;28;20045;-83
2021/08/05 05:48:00;;;;;;;;;;;;;;;14.86;91.47;98534.19;5067595;28;20044;-82
2021/08/05 05:50:28;;;;;;;4.03;2.22;;;;;;;14.90;90.44;98514.59;5070201;28;19936;-82
2021/08/05 05:52:56;;;;;;;11.20;2.75;;;;;;;15.08;89.59;98520.03;5071776;28;20052;-82
2021/08/05 05:55:23;;;;;;;5.78;3.00;;;;;;;15.11;90.13;98525.03;5072938;28;20135;-82
2021/08/05 05:57:50;;;;;;;4.38;2.70;;;;;;;14.99;90.87;98510.47;5073021;28;20051;-82
2021/08/05 06:00:18;;;;;;;9.73;3.28;;;;;;;15.30;90.87;98531.34;5069698;28;20045;-83
2021/08/05 06:02:45;;;;;;;4.25;2.50;;;;;;;15.28;90.56;98530.75;5072660;28;20057;-83
2021/08/05 06:05:12;;;;;;;3.22;2.70;;;;;;;15.28;90.33;98514.31;5072390;28;20127;-83
2021/08/05 06:07:44;;;;;;;11.85;2.75;;;;;;;15.65;88.50;98535.28;5072523;28;20506;-83
2021/08/05 06:10:13;;;;;;;9.20;2.63;;;;;;;15.67;86.66;98508.47;5072702;28;20385;-83
2021/08/05 06:12:40;;;;;;;3.13;2.33;;;;;;;15.75;86.41;98524.59;5074302;28;20506;-83
2021/08/05 06:15:07;;;;;;;3.80;2.30;;;;;;;16.02;85.49;98505.84;5071182;28;20040;-83
2021/08/05 06:17:40;;;;;;;6.10;2.40;;;;;;;16.04;83.92;98505.63;5069274;28;20048;-83
2021/08/05 06:20:09;;;;;;;4.55;2.75;;;;;;;16.27;83.34;98521.25;5066340;28;20462;-83
2021/08/05 06:22:37;;;;;;;4.60;2.88;;;;;;;16.67;82.56;98519.69;5072591;28;20044;-83
2021/08/05 06:25:05;;;;;;;5.30;3.00;;;;;;;17.36;80.28;98533.53;5072689;28;20135;-83
2021/08/05 06:27:32;;;;;;;3.47;2.95;;;;;;;17.37;78.83;98513.19;5072483;28;20064;-83
2021/08/05 06:29:59;;;;;;;4.38;2.83;;;;;;;17.47;79.34;98512.56;5071626;28;20040;-83
2021/08/05 06:32:26;;;;;;;5.82;3.10;;;;;;;18.18;77.09;98521.25;5071678;28;20200;-83
2021/08/05 06:34:54;;;;;;;5.07;2.97;;;;;;;18.79;75.29;98519.69;5071662;28;20052;-84
2021/08/05 06:37:21;;;;;;;7.15;2.72;;;;;;;19.12;73.36;98506.91;5072512;28;20041;-83
2021/08/05 06:39:48;;;;;;;7.82;3.17;;;;;;;19.06;74.74;98508.78;5072011;28;20109;-83
2021/08/05 06:42:15;;;;;;;7.75;3.08;;;;;;;18.97;75.01;98526.84;5072108;28;20043;-83
2021/08/05 06:44:42;;;;;;;7.90;2.92;;;;;;;18.67;75.36;98517.06;5071591;28;20466;-83
2021/08/05 06:47:09;;;;;;;4.97;2.70;;;;;;;18.68;75.93;98500.28;5062993;28;20095;-83
2021/08/05 06:49:35;;;;;;;4.70;3.25;;;;;;;18.78;75.54;98520.78;5072221;28;20071;-83
2021/08/05 06:52:04;;;;;;;4.82;3.00;;;;;;;18.59;76.21;98518.31;5071936;28;20064;-83
2021/08/05 06:54:31;;;;;;;7.05;3.03;;;;;;;18.50;77.37;98511.56;5071432;28;20117;-83
2021/08/05 06:56:58;;;;;;;3.95;3.10;;;;;;;18.53;76.79;98508.31;5071522;28;20048;-83
2021/08/05 06:59:29;;;;;;;10.75;2.83;;;;;;;18.77;74.58;98514.44;5071465;28;20051;-83
2021/08/05 07:01:56;;;;;;;4.22;2.97;;;;;;;18.84;74.48;98531.59;5070942;28;20048;-83
2021/08/05 07:04:22;;;;;;;4.78;2.85;;;;;;;18.60;75.15;98510.91;5071155;28;20044;-83
2021/08/05 07:06:49;;;;;;;4.50;2.50;;;;;;;18.73;73.10;98525.13;5064357;28;20484;-83
2021/08/05 07:09:17;;;;;;;3.25;2.50;;;;;;;18.88;70.99;98507.19;5071371;28;20041;-83
2021/08/05 07:11:44;;;;;;;4.68;2.50;;;;;;;19.07;70.80;98516.81;5070995;28;20048;-83
2021/08/05 07:14:11;;;;;;;4.28;2.58;;;;;;;18.88;71.66;98509.94;5071075;28;20048;-82
2021/08/05 07:16:38;;;;;;;6.53;2.72;;;;;;;19.06;71.77;98506.88;5071088;28;20045;-83
2021/08/05 07:19:05;;;;;;;5.38;2.30;;;;;;;19.23;71.39;98512.28;5063367;28;20051;-82
2021/08/05 07:21:32;;;;;;;5.30;2.45;;;;;;;19.05;70.35;98510.69;5064940;28;20094;-83
2021/08/05 07:24:00;;;;;;;4.85;2.53;;;;;;;19.02;70.69;98515.91;5069977;28;20126;-83
2021/08/05 07:26:28;;;;;;;6.47;2.50;;;;;;;18.94;71.52;98500.66;5067478;28;20048;-83
2021/08/05 07:28:55;;;;;;;3.28;2.28;;;;;;;19.12;74.13;98507.78;5071698;28;20048;-82
2021/08/05 07:31:22;;;;;;;3.80;2.83;;;;;;;19.11;73.10;98511.59;5071368;28;20052;-83
2021/08/05 07:33:50;;;;;;;3.58;2.42;;;;;;;18.87;71.49;98489.81;5071158;28;20484;-83
2021/08/05 07:36:17;;;;;;;4.40;2.55;;;;;;;19.22;72.11;98507.88;5071147;28;20135;-83
2021/08/05 07:38:44;;;;;;;8.15;3.55;;;;;;;19.34;69.49;98515.19;5070391;28;20051;-82
2021/08/05 07:41:10;;;;;;;9.65;5.35;;;;;;;19.39;70.73;98487.66;5071600;28;20052;-83
2021/08/05 07:43:39;;;;;;;9.48;3.55;;;;;;;19.41;69.26;98502.84;5071001;28;20063;-83
2021/08/05 07:46:06;;;;;;;3.90;2.63;;;;;;;19.66;68.28;98507.00;5070897;28;20052;-82
2021/08/05 07:48:33;;;;;;;4.32;2.55;;;;;;;19.92;68.54;98497.03;5063096;28;20073;-83
2021/08/05 07:51:00;;;;;;;5.28;2.95;;;;;;;20.01;67.42;98504.81;5071633;28;20056;-83
2021/08/05 07:53:27;;;;;;;5.00;2.72;;;;;;;20.30;66.12;98497.06;5069727;28;20048;-83
2021/08/05 07:55:54;;;;;;;5.20;2.47;;;;;;;20.57;67.44;98485.09;5071469;28;20044;-82
2021/08/05 07:58:21;;;;;;;4.85;2.55;;;;;;;20.47;65.91;98495.00;5070690;28;20098;-83
2021/08/05 08:00:49;;;;;;;5.22;2.55;;;;;;;20.23;65.60;98466.09;5071779;28;20052;-82
2021/08/05 08:03:16;;;;;;;4.20;2.50;;;;;;;20.13;65.47;98478.72;5070787;28;20487;-82
2021/08/05 08:05:44;;;;;;;12.90;3.38;;;;;;;20.28;65.54;98491.00;5071199;28;20056;-82
2021/08/05 08:08:11;;;;;;;5.50;3.10;;;;;;;20.20;65.68;98480.44;5063306;28;20155;-83
2021/08/05 08:10:38;;;;;;;4.80;2.90;;;;;;;20.54;64.67;98493.94;5065556;28;20134;-83
2021/08/05 08:13:05;;;;;;;3.45;2.45;;;;;;;20.33;64.98;98469.75;5068359;28;20049;-83
2021/08/05 08:15:32;;;;;;;6.65;2.90;;;;;;;20.40;64.89;98477.81;5075183;28;20145;-82
2021/08/05 08:18:00;;;;;;;3.20;2.78;;;;;;;20.64;65.71;98494.81;5075246;28;20049;-82
2021/08/05 08:20:27;;;;;;;4.75;3.10;;;;;;;20.48;63.98;98477.31;5074737;28;20457;-82
2021/08/05 08:22:54;;;;;;;4.07;2.65;;;;;;;20.81;65.38;98500.19;5074992;28;20049;-82
2021/08/05 08:25:21;;;;;;;4.82;2.80;;;;;;;20.59;64.29;98492.00;5074428;28;20048;-82
2021/08/05 08:27:47;;;;;;;3.97;3.03;;;;;;;20.54;64.17;98494.75;5054980;28;20045;-82
2021/08/05 08:30:15;;;;;;;5.28;3.15;;;;;;;20.54;64.92;98469.91;5058513;28;20040;-82
2021/08/05 08:32:44;;;;;;;5.82;2.95;;;;;;;20.82;64.86;98477.00;5074581;28;20048;-83
2021/08/05 08:35:12;;;;;;;5.80;2.63;;;;;;;20.83;63.46;98484.16;5074483;28;20139;-83
2021/08/05 08:37:39;;;;;;;3.70;2.53;;;;;;;20.66;62.22;98469.72;5074358;28;20484;-83
2021/08/05 08:40:08;;;;;;;3.60;2.30;;;;;;;20.72;65.75;98463.13;5074189;28;20099;-82
2021/08/05 08:42:35;;;;;;;5.90;2.80;;;;;;;20.78;64.54;98484.16;5074196;28;20052;-82
2021/08/05 08:45:03;;;;;;;3.20;2.50;;;;;;;20.81;63.00;98480.84;5072669;28;20110;-82
2021/08/05 08:47:31;;;;;;;3.90;2.40;;;;;;;20.91;63.79;98455.22;5074280;28;20048;-82
2021/08/05 08:49:59;;;;;;;5.53;2.50;;;;;;;20.71;61.86;98478.03;5074299;28;20051;-83
2021/08/05 08:52:30;;;;;;;4.13;2.33;;;;;;;20.83;61.53;98475.88;5073948;28;20053;-83
2021/08/05 08:54:58;;;;;;;3.95;2.70;;;;;;;21.13;60.85;98466.03;5074090;28;20041;-83
2021/08/05 08:57:31;;;;;;;3.50;2.30;;;;;;;21.02;59.89;98467.94;5074034;28;20457;-83
2021/08/05 08:59:59;;;;;;;5.82;2.92;;;;;;;20.97;60.39;98469.84;5074394;28;20045;-83
2021/08/05 09:02:26;;;;;;;3.00;2.50;;;;;;;21.20;61.30;98452.00;5071444;28;20049;-82
2021/08/05 09:04:53;;;;;;;3.38;2.22;;;;;;;21.21;64.09;98456.41;5073764;28;20079;-82
2021/08/05 09:07:22;;;;;;;3.03;2.38;;;;;;;21.24;59.87;98455.03;5074495;28;20057;-83
2021/08/05 09:09:50;;;;;;;3.58;2.38;;;;;;;21.23;61.46;98465.25;5074166;28;20080;-83
2021/08/05 09:12:17;;;;;;;4.40;2.13;;;;;;;21.53;59.91;98470.06;5074151;28;20055;-83
2021/08/05 09:14:46;;;;;;;5.53;2.40;;;;;;;21.26;58.81;98463.88;5073401;28;21402;-83
2021/08/05 09:17:23;;;;;;;3.40;2.17;;;;;;;21.58;58.35;98463.72;5074252;28;20053;-83
2021/08/05 09:19:51;;;;;;;4.72;2.08;;;;;;;21.65;57.75;98474.50;5068616;28;20036;-83
2021/08/05 09:22:39;;;;;;;2.35;1.90;;;;;;;21.75;59.05;98455.16;5073739;28;20404;-82
2021/08/05 09:25:31;;;;;;;5.10;2.05;;;;;;;21.96;58.51;98446.84;5066310;28;20044;-82
2021/08/05 09:28:17;;;;;;;4.43;2.20;;;;;;;21.84;59.03;98455.44;5065788;28;20052;-82
2021/08/05 09:30:52;;;;;;;4.80;2.50;;;;;;;22.00;57.63;98459.03;5071310;28;20064;-83
2021/08/05 09:33:18;;;;;;;4.20;2.28;;;;;;;22.12;56.73;98451.28;5068695;28;20055;-83
2021/08/05 09:35:51;;;;;;;7.20;2.25;;;;;;;21.89;59.77;98459.03;5069332;28;20051;-83
2021/08/05 09:38:28;;;;;;;3.38;2.00;;;;;;;22.10;59.92;98457.09;5073857;28;20052;-83
2021/08/05 09:41:10;;;;;;;3.90;2.20;;;;;;;22.09;57.23;98443.53;5074508;28;20048;-83
2021/08/05 09:43:40;;;;;;;5.18;2.35;;;;;;;22.09;57.16;98443.53;5072872;28;20573;-83
2021/08/05 09:46:07;;;;;;;3.88;2.10;;;;;;;22.04;56.58;98455.44;5072866;28;20048;-83
2021/08/05 09:48:43;;;;;;;2.92;2.25;;;;;;;22.01;57.69;98446.84;5065019;28;20072;-82
2021/08/05 09:51:13;;;;;;;2.25;1.90;;;;;;;22.08;56.76;98439.91;5067950;28;20593;-83
2021/08/05 09:53:59;;;;;;;4.07;2.28;;;;;;;22.05;55.33;98450.72;5071957;28;20045;-83
2021/08/05 09:56:29;;;;;;;2.67;1.85;;;;;;;22.02;57.14;98454.03;5067539;28;20496;-83
2021/08/05 09:59:10;;;;;;;2.20;1.83;;;;;;;22.31;58.17;98434.97;5073018;28;20055;-83
2021/08/05 10:01:37;;;;;;;4.38;2.05;;;;;;;22.69;57.59;98442.88;5073100;28;20102;-83
2021/08/05 10:04:25;;;;;;;4.45;1.98;;;;;;;22.88;56.34;98440.31;5069721;28;20384;-82
2021/08/05 10:07:04;;;;;;;9.35;2.35;;;;;;;22.72;55.99;98425.72;5069945;28;20504;-83
2021/08/05 10:09:31;;;;;;;5.35;2.45;;;;;;;22.77;55.06;98439.53;5069333;28;20097;-83
2021/08/05 10:12:20;;;;;;;3.60;2.20;;;;;;;23.31;57.46;98437.91;5071131;28;20060;-83
2021/08/05 10:14:49;;;;;;;2.70;1.83;;;;;;;22.93;53.56;98421.72;5069132;28;20098;-83
2021/08/05 10:17:18;;;;;;;3.30;1.90;;;;;;;23.11;52.78;98433.31;5063698;28;20045;-83
2021/08/05 10:19:46;;;;;;;6.22;2.30;;;;;;;23.32;52.38;98425.72;5072233;28;20128;-83
2021/08/05 10:22:15;;;;;;;4.25;2.47;;;;;;;23.59;52.32;98422.50;5072132;28;20102;-83
2021/08/05 10:24:44;;;;;;;3.30;1.90;;;;;;;23.42;54.30;98411.75;5072039;28;20040;-83
2021/08/05 10:27:13;;;;;;;3.22;2.03;;;;;;;23.32;52.96;98420.19;5072110;28;20056;-82
2021/08/05 10:29:43;;;;;;;3.47;1.73;;;;;;;23.48;52.88;98420.88;5072035;28;20408;-82
2021/08/05 10:32:12;;;;;;;5.15;2.38;;;;;;;23.57;56.00;98423.88;5064238;28;20314;-82
2021/08/05 10:34:40;;;;;;;5.15;2.25;;;;;;;23.88;52.73;98412.56;5072313;28;20055;-83
2021/08/05 10:37:11;;;;;;;2.70;1.80;;;;;;;24.07;50.47;98407.13;5070830;28;20052;-83
2021/08/05 10:39:42;;;;;;;2.85;1.83;;;;;;;24.14;53.18;98402.88;5072416;28;20041;-83
2021/08/05 10:42:11;;;;;;;4.05;1.80;;;;;;;24.37;49.97;98383.75;5071477;28;20056;-83
2021/08/05 10:44:42;;;;;;;4.73;1.70;;;;;;;24.42;51.67;98399.53;5067538;28;20070;-83
2021/08/05 10:47:13;;;;;;;2.22;1.50;;;;;;;24.32;53.10;98406.03;5071583;28;20502;-83
2021/08/05 10:49:41;;;;;;;2.17;1.70;;;;;;;24.38;48.71;98399.31;5072438;28;20052;-82
2021/08/05 10:52:08;;;;;;;3.40;1.65;;;;;;;25.05;46.15;98379.03;5071629;28;20412;-83
2021/08/05 10:54:54;;;;;;;2.33;1.75;;;;;;;24.64;51.83;98379.59;5071774;28;20123;-83
2021/08/05 10:57:23;;;;;;;4.57;1.98;;;;;;;24.35;50.84;98366.56;5071653;28;20056;-83
2021/08/05 11:00:08;;;;;;;3.37;1.90;;;;;;;24.07;50.49;98366.28;5070931;28;20045;-83
2021/08/05 11:02:47;;;;;;;2.90;1.85;;;;;;;23.97;50.19;98367.25;5064824;28;20044;-83
2021/08/05 11:05:42;;;;;;;3.92;1.80;;;;;;;24.29;52.40;98367.75;5071035;28;20044;-83
2021/08/05 11:08:24;;;;;;;2.95;1.40;;;;;;;24.48;51.71;98353.91;5071475;28;20557;-83
2021/08/05 11:11:11;;;;;;;3.42;1.75;;;;;;;24.67;49.97;98365.94;5070069;28;20075;-83
2021/08/05 11:13:38;;;;;;;3.35;1.88;;;;;;;24.31;49.03;98344.09;5064267;28;20385;-83
2021/08/05 11:16:06;;;;;;;4.35;1.70;;;;;;;24.34;48.84;98362.13;5065359;28;20109;-83
2021/08/05 11:18:33;;;;;;;2.08;1.60;;;;;;;24.12;54.44;98341.28;5063415;28;20036;-82
2021/08/05 11:21:36;;;;;;;4.15;1.60;;;;;;;24.53;49.11;98354.69;5071426;28;20056;-83
2021/08/05 11:24:04;;;;;;;2.03;1.33;;;;;;;24.81;50.93;98356.84;5066574;28;20400;-83
2021/08/05 11:26:35;;;;;;;5.50;1.75;;;;;;;24.65;47.11;98345.13;5071808;28;20048;-83
2021/08/05 11:29:03;;;;;;;1.58;1.33;;;;;;;24.97;49.99;98349.16;5071120;28;20067;-83
2021/08/05 11:31:42;;;;;;;2.50;1.58;;;;;;;24.61;48.85;98341.28;5070398;28;20052;-83
2021/08/05 11:34:13;;;;;;;6.35;1.80;;;;;;;25.05;51.38;98345.69;5064228;28;20076;-83
2021/08/05 11:36:49;;;;;;;4.55;1.73;;;;;;;25.24;47.54;98329.00;5071532;28;20053;-83
2021/08/05 11:39:49;;;;;;;4.25;1.80;;;;;;;25.59;48.50;98344.34;5068017;28;20049;-82
2021/08/05 11:42:20;;;;;;;3.33;1.88;;;;;;;25.38;50.44;98313.25;5071649;28;20063;-82
2021/08/05 11:44:51;;;;;;;2.35;1.45;;;;;;;25.19;47.84;98318.78;5070227;28;20506;-82